Thunder radar more information blitzortung!


avis per Pluja more information rain snow radar


Visita la nostra xarxa de llocs de meteo:

Template documentation
and downloads

And another site



Rain From: 15-11-2018 00:00 Until: 23:59 warning for: Rain Level: Yellow info button

Pagina Historial Weather Underground text

Diari Resum Desembre 16, 2017 Unitats:  Imperial    Mètric   Tant
« Previous Dia
SegĂźent Dia »
Diari Setmana Mensual Anual Personalitzada
  Maxima: Minima: Media:
Temperatura: TemperatureC °F 2.5 °F 8 °F
Punt de rosada: DewpointC °F -8.6 °F -2.5 °F
Humitat: Humidity % 40 % 48 %
Wind Speed: WindSpeedKMH mph 0.0 mph 6.2 mph
RĂ fegues de vent: WindSpeedGustKMH mph - -
Vent:- - WSW
Pression baro: PressurehPa in 1010.0 in -
Precipitacions: 0.0 in    
Historical Graphs
 
 
Dades de taula per Desembre 16, 2017
Temps Temperatura Punt de rosada Pression baro Vent Wind Speed RĂ fegues de vent Humitat Rainfall Rate (Hourly)
TemperatureC °F DewpointC °F PressurehPa in Calm     Humidity % HourlyPrecipMM in
00:01 6.7 °F -2.2 °F 1010.0 in WSW 9.5 mph 9.5 mph 53 % 0.0 in
00:05 3.2 °F -3.4 °F 1011.7 in WSW 1.6 mph 3.2 mph 62 % 0.0 in
00:06 6.6 °F -2.3 °F 1010.0 in North 5.3 mph 5.3 mph 53 % 0.0 in
00:15 3.3 °F -3.5 °F 1011.7 in West 3.2 mph 3.2 mph 61 % 0.0 in
00:25 3.3 °F -3.3 °F 1011.7 in West 1.6 mph 3.2 mph 62 % 0.0 in
00:35 3.2 °F -3.4 °F 1011.7 in West 1.6 mph 6.4 mph 62 % 0.0 in
00:45 3.2 °F -3.2 °F 1011.7 in NW 1.6 mph 3.2 mph 63 % 0.0 in
00:55 3.2 °F -3.4 °F 1011.7 in NE 1.6 mph 6.4 mph 62 % 0.0 in
01:05 3.2 °F -3.4 °F 1011.7 in North 1.6 mph 3.2 mph 62 % 0.0 in
01:15 3.1 °F -3.3 °F 1011.7 in NNE 1.6 mph 4.8 mph 63 % 0.0 in
01:25 3.0 °F -3.4 °F 1011.7 in NNW 3.2 mph 3.2 mph 63 % 0.0 in
01:35 2.9 °F -3.4 °F 1011.7 in NW 1.6 mph 3.2 mph 63 % 0.0 in
01:45 2.7 °F -3.7 °F 1011.7 in WNW 1.6 mph 6.4 mph 63 % 0.0 in
01:55 2.8 °F -3.6 °F 1012.8 in West 3.2 mph 4.8 mph 63 % 0.0 in
02:05 2.5 °F -3.8 °F 1013.8 in West 3.2 mph 3.2 mph 63 % 0.0 in
02:15 2.7 °F -3.4 °F 1013.8 in West 3.2 mph 4.8 mph 64 % 0.0 in
02:25 2.6 °F -3.6 °F 1013.8 in NE 1.6 mph 4.8 mph 64 % 0.0 in
02:35 2.7 °F -3.4 °F 1013.8 in NE 3.2 mph 4.8 mph 64 % 0.0 in
02:45 3.1 °F -2.8 °F 1013.8 in NE 1.6 mph 4.8 mph 65 % 0.0 in
02:55 3.6 °F -2.4 °F 1013.8 in ENE 1.6 mph 4.8 mph 65 % 0.0 in
03:05 4.0 °F -2.2 °F 1013.8 in East 3.2 mph 4.8 mph 64 % 0.0 in
03:15 4.2 °F -2.2 °F 1013.8 in East 3.2 mph 4.8 mph 63 % 0.0 in
03:25 4.4 °F -2.1 °F 1013.8 in ENE 4.8 mph 4.8 mph 63 % 0.0 in
03:35 4.6 °F -2.1 °F 1014.8 in NE 3.2 mph 6.4 mph 62 % 0.0 in
03:45 5.5 °F -1.2 °F 1014.8 in NE 1.6 mph 4.8 mph 62 % 0.0 in
03:55 5.5 °F -1.4 °F 1014.8 in NNE 3.2 mph 4.8 mph 61 % 0.0 in
04:05 6.2 °F -0.8 °F 1014.8 in North 1.6 mph 1.6 mph 61 % 0.0 in
04:15 6.0 °F -1.4 °F 1014.8 in North 3.2 mph 4.8 mph 59 % 0.0 in
04:25 6.2 °F -1.2 °F 1015.8 in NE 1.6 mph 4.8 mph 59 % 0.0 in
04:35 6.8 °F -0.7 °F 1015.8 in NE 1.6 mph 3.2 mph 59 % 0.0 in
04:45 7.2 °F -0.3 °F 1015.8 in West 1.6 mph 4.8 mph 59 % 0.0 in
04:55 7.5 °F -0.2 °F 1015.8 in SSW 3.2 mph 6.4 mph 58 % 0.0 in
05:05 7.8 °F 0.1 °F 1015.8 in East 3.2 mph 3.2 mph 58 % 0.0 in
05:15 8.1 °F 0.1 °F 1015.8 in NNE 3.2 mph 12.9 mph 57 % 0.0 in
11:24 8.3 °F 0.3 °F 1015.8 in WNW 5.6 mph 5.6 mph 57 % 0.0 in
11:25 8.3 °F 0.3 °F 1015.8 in WNW 5.6 mph 5.6 mph 57 % 0.0 in
11:26 8.3 °F 0.3 °F 1015.8 in WSW 7.4 mph 7.4 mph 57 % 0.0 in
11:30 8.4 °F 0.4 °F 1015.8 in West 14.0 mph 14.0 mph 57 % 0.0 in
11:35 8.5 °F 0.2 °F 1015.8 in WSW 8.7 mph 8.7 mph 56 % 0.0 in
11:37 8.5 °F 0.2 °F 1015.8 in NE 9.3 mph 9.3 mph 56 % 0.0 in
11:41 8.6 °F 0.3 °F 1015.8 in West 9.3 mph 9.3 mph 56 % 0.0 in
11:46 8.6 °F 0.1 °F 1015.8 in WSW 9.3 mph 9.3 mph 55 % 0.0 in
11:51 8.8 °F 0.2 °F 1015.8 in WNW 11.1 mph 11.1 mph 55 % 0.0 in
11:52 8.8 °F 0.2 °F 1015.8 in West 11.1 mph 11.1 mph 55 % 0.0 in
11:55 8.8 °F 0.0 °F 1015.8 in West 11.1 mph 11.1 mph 54 % 0.0 in
11:58 8.8 °F 0.0 °F 1015.8 in WNW 9.3 mph 9.3 mph 54 % 0.0 in
12:03 9.1 °F 0.3 °F 1015.8 in WSW 9.3 mph 9.3 mph 54 % 0.0 in
12:04 9.1 °F 0.3 °F 1015.8 in WSW 9.3 mph 9.3 mph 54 % 0.0 in
12:09 9.3 °F 0.4 °F 1015.8 in WSW 7.4 mph 7.4 mph 54 % 0.0 in
12:12 9.6 °F 0.7 °F 1014.8 in SSW 7.4 mph 7.4 mph 54 % 0.0 in
12:15 9.7 °F 0.8 °F 1014.8 in West 7.4 mph 7.4 mph 54 % 0.0 in
12:20 9.8 °F 0.7 °F 1014.8 in SW 7.4 mph 9.5 mph 53 % 0.0 in
12:21 9.8 °F 0.7 °F 1014.8 in West 7.4 mph 7.4 mph 53 % 0.0 in
12:26 10.2 °F 1.1 °F 1015.8 in NNW 7.4 mph 7.4 mph 53 % 0.0 in
12:28 10.2 °F 1.1 °F 1015.8 in NNW 10.0 mph 10.0 mph 53 % 0.0 in
12:32 10.2 °F 0.8 °F 1015.8 in WSW 9.3 mph 9.3 mph 52 % 0.0 in
12:37 10.3 °F 0.9 °F 1015.8 in West 7.4 mph 7.4 mph 52 % 0.0 in
12:39 10.3 °F 0.9 °F 1015.8 in WNW 11.1 mph 11.1 mph 52 % 0.0 in
12:42 10.6 °F 1.2 °F 1015.8 in West 7.4 mph 7.4 mph 52 % 0.0 in
12:47 10.6 °F 0.9 °F 1015.8 in WNW 9.3 mph 9.3 mph 51 % 0.0 in
12:48 10.6 °F 0.9 °F 1015.8 in West 7.4 mph 7.4 mph 51 % 0.0 in
12:53 10.7 °F 0.9 °F 1015.8 in SW 5.3 mph 5.3 mph 51 % 0.0 in
12:54 10.8 °F 1.1 °F 1015.8 in WSW 5.6 mph 5.6 mph 51 % 0.0 in
12:59 11.0 °F 1.2 °F 1014.8 in WSW 9.3 mph 9.3 mph 51 % 0.0 in
13:00 11.0 °F 1.2 °F 1014.8 in WSW 6.1 mph 6.1 mph 51 % 0.0 in
13:05 11.0 °F 1.2 °F 1014.8 in WNW 11.1 mph 11.1 mph 51 % 0.0 in
13:07 11.1 °F 1.3 °F 1014.8 in WNW 5.6 mph 5.6 mph 51 % 0.0 in
13:11 11.1 °F 1.1 °F 1015.8 in WNW 7.4 mph 7.4 mph 50 % 0.0 in
13:16 11.2 °F 1.2 °F 1015.8 in WNW 11.1 mph 11.1 mph 50 % 0.0 in
13:21 11.1 °F 0.8 °F 1015.8 in West 9.3 mph 9.3 mph 49 % 0.0 in
13:25 11.2 °F 0.9 °F 1015.8 in West 9.5 mph 9.5 mph 49 % 0.0 in
13:28 11.1 °F 0.8 °F 1014.8 in WSW 13.0 mph 13.0 mph 49 % 0.0 in
13:33 11.0 °F 0.4 °F 1014.8 in South 11.4 mph 11.4 mph 48 % 0.0 in
13:35 11.1 °F 0.5 °F 1014.8 in West 13.0 mph 13.0 mph 48 % 0.0 in
13:37 11.1 °F 0.5 °F 1014.8 in South 13.0 mph 13.0 mph 48 % 0.0 in
13:42 11.3 °F 0.7 °F 1015.8 in WSW 5.6 mph 5.6 mph 48 % 0.0 in
13:44 11.2 °F 0.6 °F 1015.8 in SW 5.6 mph 6.1 mph 48 % 0.0 in
13:49 11.3 °F 0.7 °F 1015.8 in WSW 3.7 mph 3.7 mph 48 % 0.0 in
13:50 11.3 °F 0.7 °F 1015.8 in WNW 3.9 mph 3.9 mph 48 % 0.0 in
13:55 11.4 °F 0.2 °F 1015.8 in ENE 7.4 mph 7.4 mph 46 % 0.0 in
13:58 11.5 °F 0.3 °F 1015.8 in NNW 5.6 mph 5.6 mph 46 % 0.0 in
14:00 11.5 °F 0.6 °F 1015.8 in NNW 5.6 mph 5.6 mph 47 % 0.0 in
14:05 12.0 °F 0.7 °F 1015.8 in West 9.3 mph 9.3 mph 46 % 0.0 in
14:06 12.0 °F 0.7 °F 1015.8 in East 5.6 mph 5.6 mph 46 % 0.0 in
14:08 12.1 °F 0.5 °F 1015.8 in North 7.4 mph 8.7 mph 45 % 0.0 in
14:12 12.0 °F 0.1 °F 1015.8 in WSW 9.3 mph 9.3 mph 44 % 0.0 in
14:17 12.0 °F 0.4 °F 1015.8 in WSW 7.4 mph 7.4 mph 45 % 0.0 in
14:18 12.0 °F 0.1 °F 1015.8 in NE 5.3 mph 5.3 mph 44 % 0.0 in
14:23 12.1 °F 0.2 °F 1015.8 in SW 5.6 mph 5.6 mph 44 % 0.0 in
14:24 12.1 °F 0.2 °F 1015.8 in NW 5.6 mph 5.6 mph 44 % 0.0 in
14:29 12.2 °F 0.3 °F 1015.8 in WNW 9.3 mph 9.3 mph 44 % 0.0 in
14:32 12.1 °F -0.1 °F 1015.8 in SW 13.0 mph 13.0 mph 43 % 0.0 in
14:34 12.2 °F 0.0 °F 1015.8 in WSW 10.0 mph 10.0 mph 43 % 0.0 in
14:39 12.2 °F 0.0 °F 1015.8 in WNW 3.7 mph 3.9 mph 43 % 0.0 in
14:41 12.2 °F 0.0 °F 1015.8 in NW 11.1 mph 11.1 mph 43 % 0.0 in
14:42 12.2 °F 0.0 °F 1015.8 in SW 11.1 mph 11.1 mph 43 % 0.0 in
14:47 12.2 °F 0.0 °F 1015.8 in SW 5.0 mph 5.0 mph 43 % 0.0 in
14:51 12.1 °F -0.1 °F 1015.8 in WSW 11.1 mph 11.1 mph 43 % 0.0 in
14:56 12.2 °F 0.0 °F 1015.8 in West 10.0 mph 10.0 mph 43 % 0.0 in
14:57 12.1 °F -0.1 °F 1015.8 in WNW 9.3 mph 9.3 mph 43 % 0.0 in
15:02 12.4 °F 0.2 °F 1015.8 in South 13.0 mph 13.0 mph 43 % 0.0 in
15:06 12.3 °F 0.1 °F 1015.8 in West 9.3 mph 9.3 mph 43 % 0.0 in
15:08 12.3 °F 0.1 °F 1015.8 in West 9.3 mph 9.3 mph 43 % 0.0 in
15:13 12.5 °F 0.2 °F 1015.8 in WSW 7.4 mph 7.4 mph 43 % 0.0 in
15:18 12.6 °F 0.3 °F 1015.8 in WSW 9.3 mph 9.3 mph 43 % 0.0 in
15:20 12.6 °F 0.0 °F 1015.8 in West 7.4 mph 7.4 mph 42 % 0.0 in
15:25 12.5 °F -0.1 °F 1015.8 in WSW 9.3 mph 9.3 mph 42 % 0.0 in
15:30 12.4 °F -0.2 °F 1015.8 in WSW 7.4 mph 7.4 mph 42 % 0.0 in
15:31 12.5 °F -0.1 °F 1015.8 in WSW 7.9 mph 7.9 mph 42 % 0.0 in
15:36 12.5 °F -0.1 °F 1015.8 in West 7.4 mph 7.4 mph 42 % 0.0 in
15:41 12.5 °F -0.1 °F 1015.8 in WSW 9.5 mph 9.5 mph 42 % 0.0 in
15:43 12.5 °F -0.4 °F 1015.8 in SSW 11.1 mph 11.1 mph 41 % 0.0 in
15:48 12.5 °F -0.4 °F 1015.8 in SW 11.1 mph 11.1 mph 41 % 0.0 in
15:49 12.5 °F -0.8 °F 1015.8 in WSW 5.6 mph 6.1 mph 40 % 0.0 in
15:54 12.5 °F -0.4 °F 1015.8 in SW 7.4 mph 7.4 mph 41 % 0.0 in
15:59 12.5 °F -0.4 °F 1016.8 in WSW 5.6 mph 5.6 mph 41 % 0.0 in
16:04 12.4 °F -0.5 °F 1016.8 in West 7.4 mph 7.4 mph 41 % 0.0 in
16:05 12.4 °F -0.8 °F 1016.8 in WNW 6.4 mph 6.4 mph 40 % 0.0 in
16:10 12.3 °F -0.9 °F 1016.8 in West 7.4 mph 7.4 mph 40 % 0.0 in
16:11 12.3 °F -0.9 °F 1016.8 in West 7.4 mph 7.4 mph 40 % 0.0 in
16:16 12.2 °F -1.0 °F 1016.8 in WNW 7.4 mph 7.4 mph 40 % 0.0 in
16:17 12.2 °F -1.0 °F 1016.8 in WSW 7.4 mph 7.4 mph 40 % 0.0 in
16:21 11.9 °F -1.3 °F 1016.8 in West 11.1 mph 11.1 mph 40 % 0.0 in
16:22 11.9 °F -1.3 °F 1016.8 in SSW 7.4 mph 7.4 mph 40 % 0.0 in
16:27 11.8 °F -1.4 °F 1016.8 in West 9.3 mph 9.3 mph 40 % 0.0 in
16:32 11.7 °F -1.4 °F 1016.8 in WSW 10.3 mph 10.3 mph 40 % 0.0 in
16:33 11.6 °F -1.6 °F 1016.8 in WSW 11.1 mph 11.1 mph 40 % 0.0 in
16:35 11.6 °F -1.6 °F 1016.8 in SSW 11.1 mph 11.1 mph 40 % 0.0 in
16:40 11.4 °F -1.7 °F 1016.8 in WSW 11.1 mph 11.1 mph 40 % 0.0 in
16:45 11.2 °F -1.9 °F 1017.8 in WSW 7.4 mph 7.4 mph 40 % 0.0 in
16:46 11.2 °F -1.9 °F 1017.8 in West 11.1 mph 11.1 mph 40 % 0.0 in
16:47 11.2 °F -1.9 °F 1017.8 in WSW 13.0 mph 13.0 mph 40 % 0.0 in
16:52 10.9 °F -2.2 °F 1017.8 in WSW 11.1 mph 11.1 mph 40 % 0.0 in
16:57 10.7 °F -2.4 °F 1017.8 in West 11.1 mph 11.1 mph 40 % 0.0 in
16:58 10.7 °F -2.4 °F 1017.8 in West 11.1 mph 11.1 mph 40 % 0.0 in
17:03 10.5 °F -2.2 °F 1017.8 in West 11.4 mph 11.4 mph 41 % 0.0 in
17:04 10.4 °F -2.3 °F 1017.8 in West 11.1 mph 11.1 mph 41 % 0.0 in
17:09 10.3 °F -2.4 °F 1017.8 in ENE 9.3 mph 9.7 mph 41 % 0.0 in
17:10 10.2 °F -2.5 °F 1017.8 in NW 14.8 mph 14.8 mph 41 % 0.0 in
17:15 9.9 °F -2.8 °F 1017.8 in WSW 11.1 mph 11.1 mph 41 % 0.0 in
17:17 9.8 °F -2.8 °F 1017.8 in West 13.0 mph 13.0 mph 41 % 0.0 in
17:22 9.7 °F -2.6 °F 1017.8 in WSW 11.1 mph 11.1 mph 42 % 0.0 in
17:23 9.7 °F -2.6 °F 1017.8 in WSW 15.1 mph 15.1 mph 42 % 0.0 in
17:29 9.5 °F -2.8 °F 1017.8 in West 13.0 mph 13.0 mph 42 % 0.0 in
17:35 9.4 °F -2.6 °F 1017.8 in West 8.0 mph 14.5 mph 43 % 0.0 in
17:36 9.3 °F -2.7 °F 1017.8 in West 7.4 mph 7.4 mph 43 % 0.0 in
17:41 9.3 °F -2.7 °F 1017.8 in West 14.8 mph 14.8 mph 43 % 0.0 in
17:42 9.2 °F -2.7 °F 1017.8 in West 9.3 mph 9.3 mph 43 % 0.0 in
17:47 9.1 °F -2.8 °F 1017.8 in WSW 16.7 mph 16.7 mph 43 % 0.0 in
17:49 9.1 °F -2.8 °F 1017.8 in WSW 9.3 mph 9.3 mph 43 % 0.0 in
17:54 9.0 °F -2.6 °F 1017.8 in West 13.0 mph 13.0 mph 44 % 0.0 in
17:55 9.0 °F -2.6 °F 1017.8 in WSW 13.0 mph 13.0 mph 44 % 0.0 in
17:57 9.0 °F -2.6 °F 1017.8 in West 9.3 mph 9.3 mph 44 % 0.0 in
18:00 8.9 °F -2.7 °F 1017.8 in West 11.1 mph 11.1 mph 44 % 0.0 in
18:05 8.9 °F -2.4 °F 1017.8 in WSW 9.3 mph 9.3 mph 45 % 0.0 in
18:06 8.9 °F -2.4 °F 1017.8 in WSW 10.8 mph 10.8 mph 45 % 0.0 in
18:11 8.8 °F -2.5 °F 1017.8 in West 9.3 mph 9.3 mph 45 % 0.0 in
18:13 8.8 °F -2.5 °F 1017.8 in WSW 9.3 mph 9.3 mph 45 % 0.0 in
18:15 8.7 °F -2.6 °F 1017.8 in WSW 9.3 mph 9.3 mph 45 % 0.0 in
18:20 8.7 °F -2.6 °F 1017.8 in WSW 7.4 mph 7.4 mph 45 % 0.0 in
18:22 8.6 °F -2.7 °F 1017.8 in WNW 5.6 mph 5.6 mph 45 % 0.0 in
18:27 8.5 °F -2.5 °F 1017.8 in WSW 7.4 mph 7.4 mph 46 % 0.0 in
18:28 8.5 °F -2.5 °F 1017.8 in WSW 7.4 mph 7.4 mph 46 % 0.0 in
18:30 8.5 °F -2.5 °F 1017.8 in West 7.4 mph 7.4 mph 46 % 0.0 in
18:33 8.4 °F -2.6 °F 1017.8 in WSW 5.6 mph 5.6 mph 46 % 0.0 in
18:36 8.3 °F -2.7 °F 1017.8 in West 3.9 mph 3.9 mph 46 % 0.0 in
18:40 3.6 °F -7.8 °F 1021.9 in WSW 1.6 mph 4.8 mph 43 % 0.0 in
18:41 8.2 °F -2.8 °F 1017.8 in West 5.6 mph 5.6 mph 46 % 0.0 in
18:46 8.1 °F -2.8 °F 1017.8 in West 5.3 mph 5.3 mph 46 % 0.0 in
18:49 8.1 °F -2.8 °F 1017.8 in WSW 6.4 mph 6.4 mph 46 % 0.0 in
18:50 3.7 °F -7.7 °F 1021.9 in Calm   3.2 mph 43 % 0.0 in
18:52 8.2 °F -2.8 °F 1017.8 in WSW 5.6 mph 5.6 mph 46 % 0.0 in
18:57 8.2 °F -2.4 °F 1017.8 in West 3.7 mph 3.7 mph 47 % 0.0 in
19:00 2.8 °F -8.6 °F 1021.9 in WSW 4.8 mph 4.8 mph 43 % 0.0 in
19:02 8.3 °F -2.4 °F 1017.8 in WSW 7.4 mph 7.4 mph 47 % 0.0 in
19:04 8.3 °F -2.4 °F 1017.8 in West 7.4 mph 7.4 mph 47 % 0.0 in
19:09 8.3 °F -2.4 °F 1017.8 in WNW 7.4 mph 7.4 mph 47 % 0.0 in
19:10 8.3 °F -2.4 °F 1017.8 in West 5.6 mph 5.6 mph 47 % 0.0 in
19:14 8.2 °F -2.4 °F 1017.8 in SW 3.7 mph 3.7 mph 47 % 0.0 in
19:19 8.1 °F -2.6 °F 1017.8 in WSW 2.6 mph 2.6 mph 47 % 0.0 in
19:20 8.1 °F -2.6 °F 1017.8 in West 3.7 mph 3.7 mph 47 % 0.0 in
19:23 8.1 °F -2.6 °F 1017.8 in WSW 3.7 mph 3.7 mph 47 % 0.0 in
19:27 8.1 °F -2.6 °F 1017.8 in WSW 3.7 mph 3.7 mph 47 % 0.0 in
19:28 8.0 °F -2.7 °F 1017.8 in West 4.2 mph 4.2 mph 47 % 0.0 in
19:30 2.8 °F -8.6 °F 1021.9 in WSW 3.2 mph 4.8 mph 43 % 0.0 in
19:33 8.1 °F -2.3 °F 1017.8 in WSW 3.5 mph 3.5 mph 48 % 0.0 in
19:38 8.2 °F -2.2 °F 1017.8 in West 3.7 mph 3.7 mph 48 % 0.0 in
19:40 3.3 °F -7.8 °F 1021.9 in WSW 3.2 mph 3.2 mph 44 % 0.0 in
19:41 8.1 °F -2.3 °F 1017.8 in WSW 5.0 mph 5.0 mph 48 % 0.0 in
19:46 8.0 °F -2.3 °F 1017.8 in WSW 3.7 mph 3.7 mph 48 % 0.0 in
19:47 8.0 °F -2.3 °F 1017.8 in WSW 4.2 mph 4.2 mph 48 % 0.0 in
19:50 3.6 °F -7.8 °F 1021.9 in Calm   3.2 mph 43 % 0.0 in
19:52 7.9 °F -2.4 °F 1017.8 in West 3.7 mph 4.2 mph 48 % 0.0 in
19:57 7.7 °F -2.6 °F 1017.8 in West 3.7 mph 3.7 mph 48 % 0.0 in
19:59 7.7 °F -2.6 °F 1017.8 in Calm     48 % 0.0 in
20:00 3.4 °F -7.7 °F 1021.9 in Calm   1.6 mph 44 % 0.0 in
20:02 7.7 °F -2.6 °F 1017.8 in West 5.6 mph 5.6 mph 48 % 0.0 in
20:05 7.7 °F -2.6 °F 1017.8 in West 5.6 mph 5.6 mph 48 % 0.0 in
20:08 7.7 °F -2.6 °F 1017.8 in WSW 5.6 mph 5.6 mph 48 % 0.0 in
20:10 3.4 °F -7.7 °F 1021.9 in WSW 1.6 mph 3.2 mph 44 % 0.0 in
20:13 7.6 °F -2.7 °F 1017.8 in WSW 3.9 mph 3.9 mph 48 % 0.0 in
20:14 7.6 °F -2.7 °F 1017.8 in WNW 6.4 mph 6.4 mph 48 % 0.0 in
20:19 7.7 °F -2.6 °F 1017.8 in WNW 9.3 mph 9.3 mph 48 % 0.0 in
20:20 7.7 °F -2.6 °F 1017.8 in WSW 11.1 mph 11.1 mph 48 % 0.0 in
20:25 7.7 °F -2.6 °F 1017.8 in WSW 9.3 mph 9.3 mph 48 % 0.0 in
20:30 7.7 °F -2.6 °F 1018.8 in West 11.1 mph 11.1 mph 48 % 0.0 in
20:35 7.8 °F -2.6 °F 1018.8 in WSW 9.3 mph 9.3 mph 48 % 0.0 in
20:36 7.8 °F -2.6 °F 1018.8 in West 9.3 mph 9.3 mph 48 % 0.0 in
20:39 7.7 °F -2.6 °F 1018.8 in WSW 3.9 mph 4.2 mph 48 % 0.0 in
20:40 3.5 °F -7.9 °F 1021.9 in NNE 3.2 mph 3.2 mph 43 % 0.0 in
20:41 7.6 °F -2.7 °F 1018.8 in WSW 5.6 mph 5.6 mph 48 % 0.0 in
20:46 7.5 °F -2.8 °F 1018.8 in WSW 11.1 mph 11.1 mph 48 % 0.0 in
20:47 7.5 °F -2.8 °F 1018.8 in WSW 11.1 mph 11.1 mph 48 % 0.0 in
20:50 3.4 °F -8.0 °F 1021.9 in Calm   1.6 mph 43 % 0.0 in
20:52 7.4 °F -2.9 °F 1018.8 in WNW 13.0 mph 13.0 mph 48 % 0.0 in
20:57 7.3 °F -3.0 °F 1018.8 in WSW 7.4 mph 7.4 mph 48 % 0.0 in
20:58 7.3 °F -3.0 °F 1018.8 in West 7.4 mph 7.4 mph 48 % 0.0 in
21:00 7.2 °F -3.1 °F 1018.8 in WNW 5.6 mph 5.6 mph 48 % 0.0 in
21:05 7.1 °F -3.2 °F 1018.8 in SSW 1.9 mph 1.9 mph 48 % 0.0 in
21:09 6.9 °F -3.4 °F 1018.8 in ENE 7.4 mph 7.4 mph 48 % 0.0 in
21:11 6.7 °F -3.6 °F 1019.9 in NE 5.6 mph 5.6 mph 48 % 0.0 in
21:16 6.6 °F -3.7 °F 1019.9 in NNW 2.3 mph 2.3 mph 48 % 0.0 in
21:18 6.5 °F -3.7 °F 1019.9 in NNW 1.9 mph 1.9 mph 48 % 0.0 in
21:19 6.5 °F -3.7 °F 1019.9 in NNW 1.9 mph 1.9 mph 48 % 0.0 in
21:20 3.4 °F -7.7 °F 1021.9 in Calm   3.2 mph 44 % 0.0 in
21:24 6.4 °F -3.8 °F 1019.9 in WSW 4.2 mph 4.2 mph 48 % 0.0 in
21:25 6.3 °F -3.9 °F 1019.9 in NW 3.7 mph 3.7 mph 48 % 0.0 in
21:30 6.1 °F -4.1 °F 1019.9 in West 3.7 mph 3.7 mph 48 % 0.0 in
21:32 6.1 °F -4.1 °F 1019.9 in WSW 3.7 mph 3.7 mph 48 % 0.0 in
21:37 6.0 °F -4.2 °F 1019.9 in WSW 3.7 mph 3.7 mph 48 % 0.0 in
21:40 4.4 °F -6.5 °F 1022.9 in West 3.2 mph 4.8 mph 45 % 0.0 in
21:42 6.0 °F -4.2 °F 1019.9 in WNW 3.7 mph 3.7 mph 48 % 0.0 in
21:47 6.0 °F -4.2 °F 1019.9 in NW 2.6 mph 2.6 mph 48 % 0.0 in
21:48 6.0 °F -4.5 °F 1019.9 in NNW 1.9 mph 2.3 mph 47 % 0.0 in
21:49 6.0 °F -4.5 °F 1019.9 in NNW 3.2 mph 3.2 mph 47 % 0.0 in
21:50 4.7 °F -6.2 °F 1022.9 in West 3.2 mph 4.8 mph 45 % 0.0 in
21:54 5.9 °F -4.6 °F 1019.9 in ENE 4.7 mph 4.7 mph 47 % 0.0 in
21:55 6.0 °F -4.5 °F 1019.9 in ENE 5.3 mph 5.3 mph 47 % 0.0 in
21:56 6.0 °F -4.5 °F 1019.9 in NNW 5.6 mph 5.6 mph 47 % 0.0 in
22:00 6.0 °F -4.8 °F 1019.9 in North 7.4 mph 7.4 mph 46 % 0.0 in
22:02 6.1 °F -4.7 °F 1019.9 in NNE 7.4 mph 7.4 mph 46 % 0.0 in
22:07 6.0 °F -4.8 °F 1019.9 in WNW 1.9 mph 1.9 mph 46 % 0.0 in
22:10 5.0 °F -5.7 °F 1022.9 in WSW 1.6 mph 4.8 mph 46 % 0.0 in
22:11 5.5 °F -5.2 °F 1018.8 in WSW 3.7 mph 3.7 mph 46 % 0.0 in
22:14 5.3 °F -5.4 °F 1018.8 in SW 3.7 mph 3.7 mph 46 % 0.0 in
22:17 5.3 °F -5.4 °F 1018.8 in SW 3.7 mph 3.7 mph 46 % 0.0 in
22:20 5.4 °F -5.3 °F 1018.8 in WSW 3.2 mph 4.8 mph 46 % 0.0 in
22:23 5.6 °F -5.1 °F 1018.8 in WNW 5.6 mph 5.6 mph 46 % 0.0 in
22:26 5.5 °F -5.2 °F 1019.9 in WSW 5.6 mph 5.6 mph 46 % 0.0 in
22:30 4.8 °F -5.9 °F 1022.9 in SW 1.6 mph 3.2 mph 46 % 0.0 in
22:31 5.3 °F -5.4 °F 1019.9 in SW 2.6 mph 2.6 mph 46 % 0.0 in
22:32 5.4 °F -5.3 °F 1019.9 in ENE 1.9 mph   46 % 0.0 in
22:40 5.5 °F -5.5 °F 1019.9 in WSW 3.9 mph 3.9 mph 45 % 0.0 in
22:42 5.6 °F -5.4 °F 1019.9 in SSW 3.7 mph 3.7 mph 45 % 0.0 in
22:47 5.6 °F -5.4 °F 1019.9 in WSW 3.2 mph 3.2 mph 45 % 0.0 in
22:49 5.7 °F -5.6 °F 1019.9 in WSW 3.7 mph 3.7 mph 44 % 0.0 in
22:50 5.0 °F -5.7 °F 1022.9 in West 3.2 mph 6.4 mph 46 % 0.0 in
22:54 5.5 °F -5.8 °F 1019.9 in SW 1.9 mph 2.3 mph 44 % 0.0 in
22:57 5.4 °F -5.9 °F 1019.9 in WSW 3.9 mph 3.9 mph 44 % 0.0 in
23:00 4.8 °F -5.9 °F 1022.9 in West 1.6 mph 4.8 mph 46 % 0.0 in
23:02 5.2 °F -6.1 °F 1019.9 in WSW 5.6 mph 5.6 mph 44 % 0.0 in
23:07 5.0 °F -6.3 °F 1019.9 in Calm     44 % 0.0 in
23:08 5.0 °F -6.3 °F 1019.9 in WSW 3.9 mph   44 % 0.0 in
23:10 4.5 °F -6.1 °F 1022.9 in Calm   3.2 mph 46 % 0.0 in
23:13 5.4 °F -6.2 °F 1020.9 in WNW 3.7 mph 3.7 mph 43 % 0.0 in
23:14 5.4 °F -5.9 °F 1020.9 in WNW 3.9 mph 3.9 mph 44 % 0.0 in
23:18 5.5 °F -6.1 °F 1020.9 in NNW 1.9 mph 1.9 mph 43 % 0.0 in
23:20 4.2 °F -6.4 °F 1022.9 in West 3.2 mph 3.2 mph 46 % 0.0 in
23:24 5.4 °F -6.2 °F 1020.9 in SW 2.3 mph 2.3 mph 43 % 0.0 in
23:29 4.7 °F -6.8 °F 1020.9 in WSW 5.6 mph 5.6 mph 43 % 0.0 in
23:30 4.1 °F -6.5 °F 1022.9 in West 1.6 mph 3.2 mph 46 % 0.0 in
23:34 5.0 °F -6.6 °F 1020.9 in WNW 5.6 mph 5.6 mph 43 % 0.0 in
23:36 4.9 °F -6.6 °F 1020.9 in West 1.6 mph 4.8 mph 43 % 0.0 in
23:37 5.0 °F -6.6 °F 1020.9 in WSW 4.7 mph 4.7 mph 43 % 0.0 in
23:40 4.1 °F -6.5 °F 1022.9 in WNW 1.6 mph 3.2 mph 46 % 0.0 in
23:42 5.1 °F -6.5 °F 1020.9 in NW 3.7 mph 3.7 mph 43 % 0.0 in
23:43 5.1 °F -6.5 °F 1020.9 in NW 3.7 mph 3.7 mph 43 % 0.0 in
23:44 5.2 °F -6.1 °F 1020.9 in West 3.7 mph 3.7 mph 44 % 0.0 in
23:49 5.1 °F -6.5 °F 1020.9 in West 3.7 mph   43 % 0.0 in
23:50 3.8 °F -6.8 °F 1022.9 in West 3.2 mph 6.4 mph 46 % 0.0 in
23:53 5.1 °F -6.5 °F 1020.9 in SSW 3.7 mph   43 % 0.0 in
23:54 5.1 °F -6.5 °F 1020.9 in SSW 3.7 mph   43 % 0.0 in
23:59 5.1 °F -6.5 °F 1020.9 in WNW 3.7 mph   43 % 0.0 in
Meteo Sesrovires
Elogis d' Weather Underground - 2.5 mb

Guio original per  Jim McMurry - jmcmurry@mwt.net Adaptat per a la plantilla per  Wim van der Kuil - Leuven-Template.eu

Trobareu la nostra informacio del temps tambe a:

Weather Underground

AWEKAS